Time;durP1;ratioP1;P1;durP2;ratioP2;P2;SDS_P1;SDS_P2;PMS_P1;PMS_P2;Temp;Humidity;BMP_temperature;BMP_pressure;BME280_temperature;BME280_humidity;BME280_pressure;Samples;Min_cycle;Max_cycle;Signal;HPM_P1;HPM_P2
2023/02/15 00:02:19;;;;;;;13.83;6.67;;;4.40;99.90;;;;;;5049661;28;20879;-71
2023/02/15 00:04:48;;;;;;;13.20;6.40;;;4.40;99.90;;;;;;5024800;28;20200;-71
2023/02/15 00:07:17;;;;;;;11.60;6.17;;;4.40;99.90;;;;;;5055757;28;20293;-70
2023/02/15 00:09:46;;;;;;;10.10;6.03;;;4.40;99.90;;;;;;5029501;28;20204;-71
2023/02/15 00:12:13;;;;;;;12.93;6.23;;;4.50;99.90;;;;;;5045744;28;20234;-71
2023/02/15 00:14:39;;;;;;;18.80;6.40;;;4.50;99.90;;;;;;5043278;28;20188;-71
2023/02/15 00:17:06;;;;;;;11.63;6.53;;;4.50;99.90;;;;;;5049293;28;20192;-71
2023/02/15 00:19:32;;;;;;;13.90;6.07;;;4.50;99.90;;;;;;5059342;28;20760;-71
2023/02/15 00:21:58;;;;;;;12.97;5.37;;;4.60;99.90;;;;;;5046213;28;20195;-71
2023/02/15 00:24:25;;;;;;;6.77;4.73;;;4.60;99.90;;;;;;5044551;28;20261;-71
2023/02/15 00:26:52;;;;;;;8.87;5.23;;;4.60;99.90;;;;;;5048680;28;20250;-71
2023/02/15 00:29:20;;;;;;;12.50;5.50;;;4.60;99.90;;;;;;5047413;28;20223;-71
2023/02/15 00:31:46;;;;;;;12.57;6.70;;;4.60;99.90;;;;;;5044331;28;20214;-71
2023/02/15 00:34:26;;;;;;;23.03;8.10;;;4.60;99.90;;;;;;5040789;28;20183;-71
2023/02/15 00:36:53;;;;;;;15.93;7.67;;;4.50;99.90;;;;;;5045408;28;20195;-71
2023/02/15 00:39:20;;;;;;;13.63;7.40;;;4.60;99.90;;;;;;5044937;28;20230;-71
2023/02/15 00:41:47;;;;;;;13.80;7.10;;;4.50;99.90;;;;;;5042700;28;20195;-71
2023/02/15 00:44:14;;;;;;;12.97;6.43;;;4.50;99.90;;;;;;5042031;28;20664;-71
2023/02/15 00:46:41;;;;;;;13.00;6.60;;;4.60;99.90;;;;;;5040339;28;20220;-71
2023/02/15 00:49:07;;;;;;;11.97;6.17;;;4.60;99.90;;;;;;5044037;28;20191;-71
2023/02/15 00:51:34;;;;;;;11.33;6.30;;;4.70;99.90;;;;;;5044844;28;20202;-71
2023/02/15 00:54:26;;;;;;;11.83;6.40;;;4.70;99.90;;;;;;5044472;28;20179;-71
2023/02/15 00:56:53;;;;;;;13.57;6.63;;;4.40;99.90;;;;;;5040140;28;20223;-71
2023/02/15 00:59:19;;;;;;;12.83;6.53;;;4.20;99.90;;;;;;5049913;28;20267;-71
2023/02/15 01:01:45;;;;;;;15.23;6.53;;;4.10;99.90;;;;;;5046437;28;20184;-71
2023/02/15 01:04:11;;;;;;;13.67;6.53;;;4.00;99.90;;;;;;5044776;28;20179;-71
2023/02/15 01:06:37;;;;;;;20.10;7.60;;;3.90;99.90;;;;;;5039407;28;20219;-71
2023/02/15 01:09:03;;;;;;;14.90;7.17;;;3.80;99.90;;;;;;5044085;28;20204;-71
2023/02/15 01:11:29;;;;;;;16.23;7.33;;;3.70;99.90;;;;;;5056964;28;20679;-71
2023/02/15 01:13:58;;;;;;;19.60;8.00;;;3.60;99.90;;;;;;5050098;28;20270;-70
2023/02/15 01:16:27;;;;;;;17.10;8.50;;;3.60;99.90;;;;;;5045953;28;20195;-70
2023/02/15 01:18:56;;;;;;;23.40;9.27;;;3.50;99.90;;;;;;5062123;28;20286;-71
2023/02/15 01:21:25;;;;;;;18.30;8.20;;;3.40;99.90;;;;;;5046955;28;20182;-70
2023/02/15 01:23:51;;;;;;;15.53;7.57;;;3.30;99.90;;;;;;5049703;28;20188;-70
2023/02/15 01:26:18;;;;;;;18.77;8.23;;;3.30;99.90;;;;;;5050940;28;20301;-71
2023/02/15 01:28:45;;;;;;;18.00;7.53;;;3.20;99.90;;;;;;5047251;28;20229;-70
2023/02/15 01:31:15;;;;;;;14.00;7.20;;;3.30;99.90;;;;;;5060759;28;20187;-70
2023/02/15 01:33:42;;;;;;;18.07;8.80;;;3.30;99.90;;;;;;5052465;28;20254;-70
2023/02/15 01:36:08;;;;;;;22.07;10.40;;;3.30;99.90;;;;;;5043431;28;20187;-70
2023/02/15 01:38:35;;;;;;;35.57;13.73;;;3.30;99.90;;;;;;5044231;28;20191;-70
2023/02/15 01:41:22;;;;;;;38.30;13.33;;;3.30;99.90;;;;;;5049336;28;20233;-70
2023/02/15 01:43:59;;;;;;;26.17;10.30;;;3.20;99.90;;;;;;5050617;28;20192;-70
2023/02/15 01:46:51;;;;;;;29.70;10.93;;;3.10;99.90;;;;;;5048539;28;20221;-70
2023/02/15 01:49:23;;;;;;;31.13;11.37;;;3.00;99.90;;;;;;5047461;28;20175;-70
2023/02/15 01:51:52;;;;;;;29.53;10.27;;;2.90;99.90;;;;;;5050654;28;20713;-70
2023/02/15 01:54:32;;;;;;;39.38;14.60;;;2.80;99.90;;;;;;5053109;28;21009;-70
2023/02/15 01:57:08;;;;;;;52.93;16.87;;;2.80;99.90;;;;;;5060332;28;20684;-70
2023/02/15 01:59:39;;;;;;;27.53;11.73;;;2.80;99.90;;;;;;5047325;28;20313;-70
2023/02/15 02:02:12;;;;;;;25.77;10.37;;;2.80;99.90;;;;;;5060751;28;20242;-70
2023/02/15 02:04:55;;;;;;;9.07;6.23;;;2.80;99.90;;;;;;5050198;28;20194;-70
2023/02/15 02:07:28;;;;;;;10.33;5.37;;;2.70;99.90;;;;;;5046809;28;20241;-71
2023/02/15 02:09:56;;;;;;;7.97;5.17;;;2.80;99.90;;;;;;5049634;28;20221;-70
2023/02/15 02:12:25;;;;;;;8.60;5.87;;;2.80;99.90;;;;;;5054329;28;20175;-70
2023/02/15 02:14:53;;;;;;;14.53;9.00;;;2.80;99.90;;;;;;5060493;28;20648;-70
2023/02/15 02:17:36;;;;;;;17.57;10.17;;;2.70;99.90;;;;;;5050419;28;20191;-70
2023/02/15 02:20:29;;;;;;;16.57;10.80;;;2.70;99.90;;;;;;5072297;28;20182;-70
2023/02/15 02:23:48;;;;;;;21.13;12.27;;;2.90;99.90;;;;;;5048965;28;20199;-70
2023/02/15 02:26:44;;;;;;;20.07;12.83;;;3.30;99.90;;;;;;5038904;28;20688;-70
2023/02/15 02:29:27;;;;;;;12.97;8.10;;;3.00;99.90;;;;;;5070278;28;20191;-70
2023/02/15 02:32:30;;;;;;;16.17;8.53;;;2.80;99.90;;;;;;5059797;28;20175;-70
2023/02/15 02:35:22;;;;;;;20.40;9.77;;;2.80;99.90;;;;;;5041244;28;20537;-70
2023/02/15 02:38:28;;;;;;;14.93;8.33;;;2.60;99.90;;;;;;5050971;28;20191;-70
2023/02/15 02:41:27;;;;;;;10.43;6.53;;;2.50;99.90;;;;;;5051281;28;20661;-70
2023/02/15 02:44:16;;;;;;;20.37;9.43;;;2.60;99.90;;;;;;5063672;28;20215;-70
2023/02/15 02:47:11;;;;;;;14.77;7.50;;;2.60;99.90;;;;;;5057081;28;22162;-74
2023/02/15 02:49:43;;;;;;;11.93;7.50;;;2.60;99.90;;;;;;5072778;28;20291;-74
2023/02/15 02:52:57;;;;;;;10.67;6.20;;;2.60;99.90;;;;;;5050152;28;20699;-74
2023/02/15 02:55:55;;;;;;;9.33;6.03;;;2.60;99.90;;;;;;5045101;28;20221;-74
2023/02/15 02:58:37;;;;;;;10.97;5.87;;;2.70;99.90;;;;;;5049310;28;20186;-75
2023/02/15 03:01:26;;;;;;;9.83;6.63;;;2.70;99.90;;;;;;5050682;28;20576;-74
2023/02/15 03:04:04;;;;;;;12.77;7.07;;;2.70;99.90;;;;;;5049974;28;20774;-75
2023/02/15 03:06:57;;;;;;;14.13;8.40;;;2.60;99.90;;;;;;5047379;28;20215;-74
2023/02/15 03:09:51;;;;;;;10.33;6.20;;;2.60;99.90;;;;;;5052637;28;20183;-74
2023/02/15 03:12:24;;;;;;;7.83;5.50;;;2.60;99.90;;;;;;5051978;28;20171;-75
2023/02/15 03:15:21;;;;;;;13.37;6.30;;;2.60;99.90;;;;;;5081200;28;20184;-75
2023/02/15 03:17:57;;;;;;;11.40;5.57;;;2.50;99.90;;;;;;5065322;28;20199;-75
2023/02/15 03:20:36;;;;;;;8.07;5.40;;;2.40;99.90;;;;;;5056215;28;20594;-75
2023/02/15 03:23:11;;;;;;;12.97;8.47;;;2.30;99.90;;;;;;5034087;28;20187;-75
2023/02/15 03:25:45;;;;;;;17.60;8.80;;;2.30;99.90;;;;;;5034916;28;20220;-75
2023/02/15 03:28:18;;;;;;;12.37;7.10;;;2.40;99.90;;;;;;5051274;28;20182;-75
2023/02/15 03:30:51;;;;;;;11.20;6.30;;;2.50;99.90;;;;;;5041910;28;20199;-74
2023/02/15 03:33:20;;;;;;;9.03;5.30;;;2.50;99.90;;;;;;5048063;28;20217;-74
2023/02/15 03:36:21;;;;;;;8.03;5.67;;;2.70;99.90;;;;;;5060187;28;20851;-74
2023/02/15 03:39:08;;;;;;;11.50;6.53;;;3.00;99.90;;;;;;5044372;28;20192;-75
2023/02/15 03:41:45;;;;;;;10.50;5.70;;;3.10;99.90;;;;;;5046370;28;20195;-75
2023/02/15 03:44:32;;;;;;;10.60;5.20;;;2.80;99.90;;;;;;5045951;28;20266;-74
2023/02/15 03:47:14;;;;;;;13.07;5.23;;;2.70;99.90;;;;;;5051644;28;20245;-75
2023/02/15 03:53:11;;;;;;;10.53;6.37;;;2.50;99.90;;;;;;5035475;28;20196;-75
2023/02/15 03:55:38;;;;;;;15.83;7.57;;;2.40;99.90;;;;;;5059116;28;20684;-74
2023/02/15 04:04:40;;;;;;;17.37;8.23;;;2.30;99.90;;;;;;5023790;28;20198;-74
2023/02/15 04:07:09;;;;;;;14.27;9.00;;;2.30;99.90;;;;;;5046746;28;20216;-75
2023/02/15 04:12:21;;;;;;;14.20;7.50;;;2.30;99.90;;;;;;5049256;28;20178;-74
2023/02/15 04:17:32;;;;;;;11.07;6.23;;;2.20;99.90;;;;;;5051553;28;20179;-75
2023/02/15 04:25:27;;;;;;;9.00;3.80;;;2.30;99.90;;;;;;5041769;28;20203;-74
2023/02/15 04:27:55;;;;;;;5.53;3.63;;;2.30;99.90;;;;;;5048977;28;20189;-75
2023/02/15 04:30:24;;;;;;;4.90;3.57;;;2.30;99.90;;;;;;5046335;28;20719;-74
2023/02/15 04:32:51;;;;;;;6.43;3.77;;;2.30;99.90;;;;;;5068733;28;20191;-75
2023/02/15 04:35:18;;;;;;;6.10;4.20;;;2.40;99.90;;;;;;5046702;28;20183;-75
2023/02/15 04:37:44;;;;;;;15.07;8.23;;;2.50;99.90;;;;;;5046603;28;20187;-75
2023/02/15 04:40:14;;;;;;;36.13;17.60;;;2.50;99.90;;;;;;5049918;28;20304;-74
2023/02/15 04:42:41;;;;;;;38.77;19.20;;;2.60;99.90;;;;;;5040314;28;20194;-74
2023/02/15 04:45:07;;;;;;;21.57;9.00;;;2.50;99.90;;;;;;5047344;28;21182;-75
2023/02/15 04:47:34;;;;;;;6.53;4.72;;;2.60;99.90;;;;;;5045265;28;20421;-74
2023/02/15 04:50:00;;;;;;;5.13;3.83;;;2.70;99.90;;;;;;5045802;28;20199;-75
2023/02/15 04:52:26;;;;;;;5.97;3.47;;;2.80;99.90;;;;;;5045833;28;20209;-75
2023/02/15 04:54:53;;;;;;;5.87;3.70;;;2.90;99.90;;;;;;5040602;28;20192;-74
2023/02/15 04:57:19;;;;;;;6.40;3.90;;;3.00;99.90;;;;;;5048082;28;20179;-75
2023/02/15 04:59:45;;;;;;;6.20;3.90;;;3.20;99.90;;;;;;5047424;28;20531;-75
2023/02/15 05:02:11;;;;;;;5.07;3.83;;;3.40;99.90;;;;;;5043489;28;20278;-74
2023/02/15 05:04:39;;;;;;;5.27;3.63;;;3.70;99.90;;;;;;5058213;28;20252;-75
2023/02/15 05:07:05;;;;;;;5.43;4.20;;;3.70;99.90;;;;;;5048483;28;20891;-74
2023/02/15 05:09:31;;;;;;;6.13;3.80;;;3.50;99.90;;;;;;5053738;28;20214;-75
2023/02/15 05:11:57;;;;;;;7.38;4.40;;;3.40;99.90;;;;;;5043183;28;20418;-74
2023/02/15 05:14:23;;;;;;;6.17;3.90;;;3.40;99.90;;;;;;5042444;28;20655;-75
2023/02/15 05:16:50;;;;;;;6.73;3.90;;;3.40;99.90;;;;;;5047633;28;20215;-74
2023/02/15 05:19:16;;;;;;;5.23;3.77;;;3.40;99.90;;;;;;5049616;28;20187;-74
2023/02/15 05:21:42;;;;;;;6.13;4.00;;;3.40;99.90;;;;;;5047231;28;20179;-75
2023/02/15 05:29:37;;;;;;;5.50;4.40;;;3.40;99.90;;;;;;5048047;28;20663;-74
2023/02/15 05:32:04;;;;;;;7.60;4.60;;;3.40;99.90;;;;;;5039230;28;20425;-74
2023/02/15 05:34:30;;;;;;;6.17;4.10;;;3.50;99.90;;;;;;5032964;28;20171;-74
2023/02/15 05:36:57;;;;;;;5.53;3.87;;;3.50;99.90;;;;;;5042920;28;20695;-75
2023/02/15 05:39:23;;;;;;;5.77;3.93;;;3.50;99.90;;;;;;5043926;28;20229;-74
2023/02/15 05:41:49;;;;;;;5.73;3.73;;;3.60;99.90;;;;;;5042900;28;20187;-74
2023/02/15 05:44:15;;;;;;;6.70;4.33;;;3.60;99.90;;;;;;5045271;28;20184;-75
2023/02/15 05:46:41;;;;;;;6.37;4.20;;;3.60;99.90;;;;;;5026282;28;20242;-75
2023/02/15 05:49:11;;;;;;;7.70;3.70;;;3.50;99.90;;;;;;5049219;28;20179;-74
2023/02/15 05:51:37;;;;;;;6.60;3.80;;;3.60;99.90;;;;;;5043063;28;20176;-75
2023/02/15 05:54:04;;;;;;;4.93;3.63;;;3.60;99.90;;;;;;5042120;28;20211;-75
2023/02/15 05:56:31;;;;;;;6.87;4.13;;;3.70;99.90;;;;;;5050376;28;20209;-75
2023/02/15 05:58:57;;;;;;;8.00;3.83;;;3.80;99.90;;;;;;5053875;28;20202;-74
2023/02/15 06:01:23;;;;;;;5.77;3.80;;;3.90;99.90;;;;;;5040584;28;20187;-75
2023/02/15 06:03:50;;;;;;;7.10;4.17;;;4.00;99.90;;;;;;5040373;28;21204;-74
2023/02/15 06:06:16;;;;;;;6.97;3.50;;;4.10;99.90;;;;;;5038744;28;20219;-74
2023/02/15 06:08:43;;;;;;;5.63;3.37;;;4.20;99.90;;;;;;5042997;28;20210;-74
2023/02/15 06:11:09;;;;;;;5.30;3.80;;;4.30;99.90;;;;;;5043149;28;20197;-75
2023/02/15 06:13:39;;;;;;;6.73;3.40;;;4.40;99.90;;;;;;5056611;28;20178;-74
2023/02/15 06:16:06;;;;;;;5.53;3.87;;;4.40;99.90;;;;;;5047133;28;20190;-75
2023/02/15 06:18:33;;;;;;;7.07;3.80;;;4.50;99.90;;;;;;5042701;28;20218;-74
2023/02/15 06:21:00;;;;;;;5.27;3.60;;;4.50;99.90;;;;;;5040878;28;20631;-75
2023/02/15 06:23:29;;;;;;;4.73;3.50;;;4.50;99.90;;;;;;5043632;28;20624;-75
2023/02/15 06:25:57;;;;;;;6.33;2.93;;;4.60;99.90;;;;;;5043682;28;20250;-75
2023/02/15 06:28:25;;;;;;;5.43;3.60;;;4.60;99.90;;;;;;5046795;28;20187;-75
2023/02/15 06:30:52;;;;;;;3.87;2.93;;;4.70;99.90;;;;;;5046239;28;20179;-74
2023/02/15 06:33:18;;;;;;;5.53;3.40;;;4.80;99.90;;;;;;5045256;28;20190;-74
2023/02/15 06:35:46;;;;;;;6.20;3.33;;;4.90;99.90;;;;;;5064582;28;20194;-74
2023/02/15 06:38:12;;;;;;;4.43;3.07;;;4.90;99.90;;;;;;5049718;28;20241;-75
2023/02/15 06:40:38;;;;;;;7.67;3.50;;;5.00;99.90;;;;;;5063009;28;20266;-75
2023/02/15 06:43:04;;;;;;;4.33;3.43;;;5.00;99.90;;;;;;5040809;28;20223;-75
2023/02/15 06:45:31;;;;;;;4.93;3.17;;;5.00;99.90;;;;;;5044014;28;20258;-74
2023/02/15 06:47:57;;;;;;;4.43;2.80;;;5.10;99.90;;;;;;5044631;28;20661;-75
2023/02/15 06:50:24;;;;;;;4.07;2.67;;;5.10;99.90;;;;;;5052003;28;20184;-75
2023/02/15 06:52:56;;;;;;;4.40;3.43;;;5.20;99.90;;;;;;5047607;28;20195;-75
2023/02/15 06:55:23;;;;;;;4.70;3.07;;;5.30;99.90;;;;;;5048733;28;20203;-74
2023/02/15 06:57:49;;;;;;;5.37;3.00;;;5.50;99.90;;;;;;5046098;28;20223;-75
2023/02/15 07:00:17;;;;;;;5.00;3.30;;;5.50;99.90;;;;;;5063469;28;20195;-75
2023/02/15 07:02:44;;;;;;;5.47;3.27;;;5.50;99.90;;;;;;5057015;28;20244;-75
2023/02/15 07:05:10;;;;;;;4.40;3.03;;;5.70;99.90;;;;;;5046281;28;20664;-75
2023/02/15 07:07:37;;;;;;;3.80;2.77;;;5.90;99.90;;;;;;5051364;28;20579;-74
2023/02/15 07:10:04;;;;;;;4.27;3.07;;;5.90;99.90;;;;;;5063436;28;20218;-75
2023/02/15 07:12:42;;;;;;;4.73;2.90;;;6.00;99.90;;;;;;5047070;28;20236;-74
2023/02/15 07:15:20;;;;;;;9.00;3.37;;;6.50;99.90;;;;;;5047436;28;20183;-74
2023/02/15 07:17:48;;;;;;;3.27;2.87;;;6.60;99.90;;;;;;5053487;28;20310;-75
2023/02/15 07:20:21;;;;;;;5.97;2.93;;;6.80;99.90;;;;;;5041994;28;20257;-75
2023/02/15 07:22:48;;;;;;;3.77;2.73;;;6.70;99.90;;;;;;5048243;28;20560;-74
2023/02/15 07:25:15;;;;;;;3.80;2.70;;;6.60;99.90;;;;;;5049343;28;20190;-75
2023/02/15 07:27:43;;;;;;;4.10;2.77;;;6.60;99.90;;;;;;5057203;28;20214;-74
2023/02/15 07:30:14;;;;;;;4.60;2.87;;;6.70;99.90;;;;;;5047871;28;20191;-75
2023/02/15 07:33:22;;;;;;;4.33;2.97;;;6.80;99.90;;;;;;5056021;28;20852;-74
2023/02/15 07:35:27;;;;;;;4.67;3.00;;;6.70;99.90;;;;;;5045298;28;20262;-75
2023/02/15 07:37:54;;;;;;;4.87;3.00;;;6.60;99.90;;;;;;5037979;28;20249;-75
2023/02/15 07:40:23;;;;;;;4.10;2.80;;;6.70;99.90;;;;;;5041678;28;20194;-75
2023/02/15 07:42:52;;;;;;;4.27;3.10;;;6.80;99.90;;;;;;5045491;28;20187;-75
2023/02/15 07:45:19;;;;;;;5.23;2.87;;;6.80;99.90;;;;;;5044003;28;20183;-75
2023/02/15 07:47:45;;;;;;;5.10;2.60;;;6.80;99.90;;;;;;5046107;28;20183;-74
2023/02/15 07:50:11;;;;;;;4.20;2.80;;;6.80;99.90;;;;;;5038225;28;22330;-75
2023/02/15 07:52:38;;;;;;;3.53;2.80;;;6.90;99.90;;;;;;5049504;28;20212;-75
2023/02/15 07:55:04;;;;;;;3.83;2.53;;;6.90;99.90;;;;;;5041977;28;20183;-74
2023/02/15 07:57:31;;;;;;;3.07;2.40;;;6.90;99.90;;;;;;5044838;28;20190;-74
2023/02/15 07:59:58;;;;;;;8.63;3.00;;;7.00;99.90;;;;;;5041478;28;20198;-74
2023/02/15 08:02:24;;;;;;;3.27;2.60;;;7.20;99.90;;;;;;5043724;28;20250;-75
2023/02/15 08:04:51;;;;;;;7.57;2.80;;;7.40;99.90;;;;;;5043207;28;20563;-74
2023/02/15 08:07:17;;;;;;;3.63;2.23;;;7.70;99.90;;;;;;5041986;28;20223;-74
2023/02/15 08:09:43;;;;;;;4.23;2.60;;;8.00;99.90;;;;;;5052113;28;20187;-74
2023/02/15 08:12:09;;;;;;;4.47;2.60;;;8.20;99.90;;;;;;5041716;28;20230;-74
2023/02/15 08:14:35;;;;;;;3.80;2.50;;;8.00;99.90;;;;;;5056919;28;20889;-74
2023/02/15 08:17:04;;;;;;;5.97;2.73;;;7.80;99.90;;;;;;5041650;28;20192;-75
2023/02/15 08:19:34;;;;;;;3.40;2.80;;;7.70;99.90;;;;;;5039497;28;20860;-75
2023/02/15 08:22:07;;;;;;;3.70;2.63;;;7.90;99.90;;;;;;5045628;28;20225;-75
2023/02/15 08:24:39;;;;;;;6.07;2.77;;;8.30;99.90;;;;;;5041160;28;20184;-75
2023/02/15 08:27:08;;;;;;;5.10;2.60;;;8.40;99.90;;;;;;5043932;28;20238;-75
2023/02/15 08:29:37;;;;;;;3.50;2.50;;;8.30;99.90;;;;;;5044912;28;20210;-74
2023/02/15 08:32:08;;;;;;;3.30;2.60;;;8.10;99.90;;;;;;5042495;28;20202;-74
2023/02/15 08:34:38;;;;;;;4.63;2.83;;;8.50;99.90;;;;;;5060325;28;20270;-75
2023/02/15 08:37:05;;;;;;;4.57;2.97;;;8.40;99.90;;;;;;5040323;28;20196;-75
2023/02/15 08:39:32;;;;;;;4.73;3.00;;;8.30;99.90;;;;;;5055782;28;20191;-74
2023/02/15 08:41:58;;;;;;;6.83;3.03;;;8.40;99.90;;;;;;5040345;28;20230;-74
2023/02/15 08:44:24;;;;;;;4.33;3.07;;;8.70;99.90;;;;;;5045422;28;20838;-74
2023/02/15 08:46:51;;;;;;;5.23;3.30;;;8.90;99.90;;;;;;5040895;28;20214;-75
2023/02/15 08:49:21;;;;;;;4.60;2.90;;;8.90;99.90;;;;;;5045119;28;20180;-75
2023/02/15 08:51:49;;;;;;;4.53;2.70;;;8.80;99.90;;;;;;5055357;28;20194;-74
2023/02/15 08:54:19;;;;;;;3.43;2.43;;;9.10;99.90;;;;;;5042348;28;20188;-74
2023/02/15 08:56:46;;;;;;;3.60;2.67;;;9.20;99.90;;;;;;5053709;28;20195;-74
2023/02/15 08:59:20;;;;;;;3.93;2.77;;;9.00;99.90;;;;;;5040957;28;20191;-75
2023/02/15 09:01:48;;;;;;;4.93;2.60;;;9.00;99.90;;;;;;5026767;28;20195;-74
2023/02/15 09:04:15;;;;;;;3.87;2.40;;;9.10;99.90;;;;;;5044164;28;20215;-75
2023/02/15 09:06:44;;;;;;;3.73;2.53;;;9.10;99.90;;;;;;5039343;28;20215;-75
2023/02/15 09:09:12;;;;;;;5.23;2.57;;;9.10;99.90;;;;;;5043528;28;20187;-75
2023/02/15 09:11:42;;;;;;;5.00;2.50;;;9.10;99.90;;;;;;5044501;28;20199;-75
2023/02/15 09:14:15;;;;;;;4.57;2.40;;;9.10;99.90;;;;;;5037707;28;20720;-75
2023/02/15 09:16:48;;;;;;;3.93;2.40;;;9.50;99.90;;;;;;5041055;28;20217;-75
2023/02/15 09:19:19;;;;;;;4.03;2.40;;;9.70;99.90;;;;;;5041712;28;20183;-75
2023/02/15 09:21:46;;;;;;;4.13;2.27;;;9.90;99.90;;;;;;5061074;28;20738;-74
2023/02/15 09:24:16;;;;;;;3.80;2.10;;;9.70;99.90;;;;;;5043245;28;20206;-75
2023/02/15 09:26:46;;;;;;;5.40;2.37;;;9.70;99.90;;;;;;5041672;28;20658;-74
2023/02/15 09:29:14;;;;;;;3.33;2.20;;;9.80;99.90;;;;;;5044100;28;20732;-75
2023/02/15 09:31:45;;;;;;;4.40;2.10;;;9.70;99.90;;;;;;5037737;28;20184;-74
2023/02/15 09:34:15;;;;;;;2.83;2.00;;;9.50;99.90;;;;;;5036365;28;20183;-75
2023/02/15 09:36:41;;;;;;;3.43;2.20;;;9.70;99.90;;;;;;5040118;28;20188;-75
2023/02/15 09:39:13;;;;;;;2.60;2.07;;;9.80;99.90;;;;;;5039495;28;20215;-74
2023/02/15 09:42:10;;;;;;;2.57;2.10;;;9.60;99.90;;;;;;5039650;28;20222;-75
2023/02/15 09:44:45;;;;;;;5.10;3.13;;;9.40;99.90;;;;;;5036828;28;20195;-74
2023/02/15 09:48:03;;;;;;;4.60;2.53;;;9.70;99.90;;;;;;5040290;28;20723;-75
2023/02/15 09:51:06;;;;;;;4.37;2.33;;;9.50;99.90;;;;;;5051610;28;20192;-75
2023/02/15 09:54:25;;;;;;;3.37;2.10;;;9.70;99.90;;;;;;5040721;28;20192;-75
2023/02/15 09:57:50;;;;;;;3.50;1.93;;;9.80;99.90;;;;;;5038447;28;20691;-74
2023/02/15 10:00:50;;;;;;;7.83;2.37;;;10.00;99.90;;;;;;5013637;28;20225;-75
2023/02/15 10:03:31;;;;;;;3.63;2.13;;;10.30;99.90;;;;;;5059199;28;20282;-75
2023/02/15 10:06:15;;;;;;;3.87;1.90;;;10.50;99.90;;;;;;5055145;28;20215;-74
2023/02/15 10:09:14;;;;;;;3.77;1.90;;;10.40;99.90;;;;;;5041329;28;20187;-75
2023/02/15 10:12:07;;;;;;;4.10;1.90;;;10.30;99.90;;;;;;5048801;28;20193;-75
2023/02/15 10:15:01;;;;;;;5.00;2.20;;;10.30;99.90;;;;;;5017615;28;20515;-75
2023/02/15 10:18:23;;;;;;;4.77;2.30;;;10.50;99.90;;;;;;5034250;28;20198;-74
2023/02/15 10:21:25;;;;;;;6.03;2.17;;;10.80;99.90;;;;;;5040267;28;20258;-75
2023/02/15 10:24:28;;;;;;;3.47;2.20;;;11.00;99.90;;;;;;5054348;28;20195;-75
2023/02/15 10:27:12;;;;;;;2.57;1.80;;;11.10;99.90;;;;;;5043008;28;20223;-75
2023/02/15 10:29:52;;;;;;;4.77;2.20;;;11.10;99.90;;;;;;5041637;28;20180;-75
2023/02/15 10:32:28;;;;;;;4.53;2.10;;;11.50;99.90;;;;;;5037906;28;20195;-75
2023/02/15 10:35:03;;;;;;;2.93;2.00;;;11.40;99.90;;;;;;5039078;28;20187;-75
2023/02/15 10:38:03;;;;;;;2.83;2.00;;;11.70;99.90;;;;;;5040572;28;20191;-75
2023/02/15 10:40:55;;;;;;;3.10;2.20;;;11.60;99.90;;;;;;5023929;28;20252;-75
2023/02/15 10:43:45;;;;;;;3.27;2.23;;;11.40;99.90;;;;;;5041372;28;20191;-75
2023/02/15 10:46:35;;;;;;;3.30;2.10;;;11.80;99.90;;;;;;5043127;28;20242;-75
2023/02/15 10:49:40;;;;;;;3.20;2.00;;;12.20;99.90;;;;;;5040464;28;20837;-75
2023/02/15 10:52:30;;;;;;;5.33;2.10;;;12.40;99.90;;;;;;5037323;28;20204;-75
2023/02/15 10:55:20;;;;;;;2.93;2.10;;;12.90;99.90;;;;;;5045160;28;20199;-75
2023/02/15 10:58:20;;;;;;;2.83;2.00;;;12.60;99.90;;;;;;5047946;28;20196;-75
2023/02/15 11:01:23;;;;;;;2.77;2.00;;;13.30;99.90;;;;;;5043490;28;20207;-75
2023/02/15 11:04:41;;;;;;;3.93;2.20;;;13.20;99.90;;;;;;5046126;28;20563;-75
2023/02/15 11:07:22;;;;;;;2.50;1.80;;;13.30;99.90;;;;;;5044782;28;20690;-74
2023/02/15 11:10:26;;;;;;;4.83;2.00;;;13.90;99.90;;;;;;5041093;28;20266;-75
2023/02/15 11:12:56;;;;;;;5.17;1.97;;;13.20;99.90;;;;;;5057019;28;20194;-75
2023/02/15 11:15:47;;;;;;;3.30;2.30;;;13.70;99.90;;;;;;5044169;28;20617;-75
2023/02/15 11:18:53;;;;;;;3.43;2.30;;;14.50;99.90;;;;;;5058114;28;20203;-75
2023/02/15 11:21:39;;;;;;;4.37;2.17;;;14.50;99.90;;;;;;5045711;28;20187;-75
2023/02/15 11:24:19;;;;;;;3.60;1.90;;;14.60;99.90;;;;;;5047772;28;20633;-75
2023/02/15 11:27:16;;;;;;;5.53;2.10;;;15.10;99.90;;;;;;5047730;28;21087;-75
2023/02/15 11:30:04;;;;;;;2.80;2.13;;;14.30;99.90;;;;;;5044915;28;20187;-75
2023/02/15 11:32:55;;;;;;;3.27;2.10;;;13.40;99.90;;;;;;5071017;28;20592;-75
2023/02/15 11:35:53;;;;;;;3.50;1.93;;;13.20;99.90;;;;;;5044553;28;20203;-75
2023/02/15 11:38:29;;;;;;;2.60;1.80;;;13.00;99.90;;;;;;5061232;28;20567;-75
2023/02/15 11:41:03;;;;;;;2.73;2.10;;;13.00;99.90;;;;;;5046172;28;20762;-75
2023/02/15 11:43:48;;;;;;;3.23;2.20;;;13.10;99.90;;;;;;5055592;28;20206;-75
2023/02/15 11:46:14;;;;;;;3.37;2.23;;;12.90;99.90;;;;;;5068020;28;20202;-75
2023/02/15 11:48:42;;;;;;;2.90;1.83;;;12.90;99.90;;;;;;5050893;28;20298;-75
2023/02/15 11:51:15;;;;;;;3.03;2.17;;;13.00;99.90;;;;;;5076097;28;20261;-75
2023/02/15 11:53:44;;;;;;;2.20;1.70;;;12.90;99.90;;;;;;5073804;28;20198;-75
2023/02/15 11:56:25;;;;;;;7.67;2.10;;;12.90;99.90;;;;;;5051569;28;20344;-75
2023/02/15 11:59:08;;;;;;;5.43;1.90;;;12.70;99.90;;;;;;5046810;28;20264;-75
2023/02/15 12:01:36;;;;;;;5.27;2.10;;;12.40;99.90;;;;;;5052277;28;20795;-75
2023/02/15 12:04:33;;;;;;;3.43;2.10;;;12.60;99.90;;;;;;5070659;28;20718;-75
2023/02/15 12:07:27;;;;;;;3.43;2.10;;;12.50;99.90;;;;;;5051305;28;20903;-75
2023/02/15 12:10:11;;;;;;;4.30;2.00;;;12.20;99.90;;;;;;5039377;28;20186;-75
2023/02/15 12:12:38;;;;;;;4.17;2.20;;;12.00;99.90;;;;;;5040864;28;20195;-75
2023/02/15 12:15:10;;;;;;;3.00;2.10;;;11.80;99.90;;;;;;5052214;28;21078;-75
2023/02/15 12:17:48;;;;;;;3.23;2.20;;;12.30;99.90;;;;;;5090800;28;20768;-75
2023/02/15 12:20:15;;;;;;;3.83;1.97;;;12.30;99.90;;;;;;5051506;28;20187;-75
2023/02/15 12:23:03;;;;;;;3.57;2.13;;;12.40;99.90;;;;;;5045389;28;20771;-75
2023/02/15 12:25:54;;;;;;;3.57;2.40;;;12.30;99.90;;;;;;5045397;28;20229;-75
2023/02/15 12:28:35;;;;;;;3.30;2.00;;;12.10;99.90;;;;;;5052096;28;20556;-75
2023/02/15 12:31:19;;;;;;;3.40;1.93;;;12.30;99.90;;;;;;5049095;28;20182;-75
2023/02/15 12:33:46;;;;;;;4.23;1.93;;;12.20;99.90;;;;;;5064649;28;20824;-75
2023/02/15 12:36:28;;;;;;;3.40;2.17;;;12.30;99.90;;;;;;5048951;28;20194;-75
2023/02/15 12:39:14;;;;;;;2.57;2.00;;;12.00;99.90;;;;;;5045883;28;20270;-75
2023/02/15 12:41:55;;;;;;;3.40;2.00;;;12.20;99.90;;;;;;5036865;28;20575;-75
2023/02/15 12:44:32;;;;;;;3.90;2.20;;;12.50;99.90;;;;;;5041676;28;20179;-75
2023/02/15 12:47:16;;;;;;;5.67;2.27;;;12.40;99.90;;;;;;5055101;28;20210;-75
2023/02/15 12:49:45;;;;;;;2.60;2.20;;;12.60;99.90;;;;;;5045847;28;20180;-75
2023/02/15 12:52:20;;;;;;;2.13;1.80;;;12.50;99.90;;;;;;5045145;28;20187;-75
2023/02/15 12:54:47;;;;;;;9.03;2.30;;;12.40;99.90;;;;;;5052882;28;20178;-75
2023/02/15 12:57:29;;;;;;;4.87;2.90;;;12.10;99.90;;;;;;5047245;28;20219;-75
2023/02/15 13:00:03;;;;;;;5.23;2.30;;;12.20;99.90;;;;;;5045242;28;20661;-75
2023/02/15 13:02:53;;;;;;;3.10;2.10;;;12.30;99.90;;;;;;5042967;28;20186;-75
2023/02/15 13:05:40;;;;;;;3.13;2.37;;;12.40;99.90;;;;;;5036600;28;20229;-75
2023/02/15 13:08:14;;;;;;;3.50;2.20;;;12.50;99.90;;;;;;5033300;28;20191;-75
2023/02/15 13:11:11;;;;;;;5.57;2.40;;;12.40;99.90;;;;;;5036823;28;20191;-75
2023/02/15 13:14:21;;;;;;;3.43;2.10;;;12.50;99.90;;;;;;5043051;28;20188;-75
2023/02/15 13:16:53;;;;;;;4.70;2.33;;;11.90;99.90;;;;;;5042901;28;20176;-75
2023/02/15 13:19:28;;;;;;;4.07;2.17;;;11.90;99.90;;;;;;5051674;28;20551;-74
2023/02/15 13:21:59;;;;;;;5.70;1.90;;;12.10;99.90;;;;;;5068335;28;20229;-74
2023/02/15 13:24:48;;;;;;;3.70;2.00;;;11.80;99.90;;;;;;5058594;28;20204;-75
2023/02/15 13:27:22;;;;;;;4.37;2.20;;;11.90;99.90;;;;;;5059482;28;20239;-74
2023/02/15 13:29:58;;;;;;;6.43;2.20;;;12.00;99.90;;;;;;5048021;28;20198;-75
2023/02/15 13:32:40;;;;;;;4.17;2.20;;;12.00;99.90;;;;;;5076098;28;20183;-75
2023/02/15 13:35:16;;;;;;;3.87;2.07;;;12.00;99.90;;;;;;5049077;28;20195;-74
2023/02/15 13:37:50;;;;;;;3.40;2.03;;;11.90;99.90;;;;;;5054168;28;20191;-75
2023/02/15 13:40:39;;;;;;;2.57;2.17;;;11.80;99.90;;;;;;5050159;28;21165;-74
2023/02/15 13:43:53;;;;;;;4.30;2.43;;;11.80;99.90;;;;;;5049542;28;20187;-75
2023/02/15 13:46:47;;;;;;;2.60;1.80;;;11.70;99.90;;;;;;5071504;28;20203;-75
2023/02/15 13:49:50;;;;;;;4.87;2.37;;;11.30;99.90;;;;;;5045617;28;20184;-75
2023/02/15 13:52:29;;;;;;;3.23;2.00;;;11.50;99.90;;;;;;5045983;28;20209;-75
2023/02/15 13:55:26;;;;;;;4.33;2.07;;;11.50;99.90;;;;;;5040641;28;20246;-74
2023/02/15 13:58:10;;;;;;;11.47;2.20;;;11.60;99.90;;;;;;5049831;28;20723;-75
2023/02/15 14:00:36;;;;;;;7.13;2.50;;;11.50;99.90;;;;;;5041130;28;20250;-75
2023/02/15 14:03:56;;;;;;;3.30;2.20;;;11.50;99.90;;;;;;5045233;28;20187;-74